sensor_id;sensor_type;location;lat;lon;timestamp;P1;durP1;ratioP1;P2;durP2;ratioP2
51122;SDS011;37162;41.724;13.346;2023-06-10T00:01:57;4.55;;;2.75;;
51122;SDS011;37162;41.724;13.346;2023-06-10T00:04:24;7.20;;;3.78;;
51122;SDS011;37162;41.724;13.346;2023-06-10T00:06:50;6.78;;;3.45;;
51122;SDS011;37162;41.724;13.346;2023-06-10T00:09:16;3.97;;;2.92;;
51122;SDS011;37162;41.724;13.346;2023-06-10T00:11:43;3.95;;;3.10;;
51122;SDS011;37162;41.724;13.346;2023-06-10T00:14:09;4.80;;;3.30;;
51122;SDS011;37162;41.724;13.346;2023-06-10T00:16:34;5.72;;;3.83;;
51122;SDS011;37162;41.724;13.346;2023-06-10T00:19:01;7.38;;;3.63;;
51122;SDS011;37162;41.724;13.346;2023-06-10T00:21:29;5.22;;;3.45;;
51122;SDS011;37162;41.724;13.346;2023-06-10T00:23:55;6.53;;;3.90;;
51122;SDS011;37162;41.724;13.346;2023-06-10T00:26:21;3.55;;;2.85;;
51122;SDS011;37162;41.724;13.346;2023-06-10T00:28:47;6.78;;;3.85;;
51122;SDS011;37162;41.724;13.346;2023-06-10T00:31:13;5.68;;;3.42;;
51122;SDS011;37162;41.724;13.346;2023-06-10T00:33:38;7.35;;;3.92;;
51122;SDS011;37162;41.724;13.346;2023-06-10T00:36:04;6.30;;;3.72;;
51122;SDS011;37162;41.724;13.346;2023-06-10T00:38:29;7.15;;;3.65;;
51122;SDS011;37162;41.724;13.346;2023-06-10T00:40:55;5.10;;;3.10;;
51122;SDS011;37162;41.724;13.346;2023-06-10T00:43:20;6.07;;;3.83;;
51122;SDS011;37162;41.724;13.346;2023-06-10T00:45:46;4.32;;;2.78;;
51122;SDS011;37162;41.724;13.346;2023-06-10T00:48:11;4.78;;;2.90;;
51122;SDS011;37162;41.724;13.346;2023-06-10T00:50:37;5.13;;;3.20;;
51122;SDS011;37162;41.724;13.346;2023-06-10T00:53:05;4.80;;;3.35;;
51122;SDS011;37162;41.724;13.346;2023-06-10T00:55:32;5.30;;;3.42;;
51122;SDS011;37162;41.724;13.346;2023-06-10T00:57:58;4.38;;;3.40;;
51122;SDS011;37162;41.724;13.346;2023-06-10T01:00:24;3.83;;;2.72;;
51122;SDS011;37162;41.724;13.346;2023-06-10T01:02:51;9.18;;;3.40;;
51122;SDS011;37162;41.724;13.346;2023-06-10T01:05:17;3.75;;;3.05;;
51122;SDS011;37162;41.724;13.346;2023-06-10T01:08:27;6.88;;;3.78;;
51122;SDS011;37162;41.724;13.346;2023-06-10T01:10:38;8.40;;;3.67;;
51122;SDS011;37162;41.724;13.346;2023-06-10T01:13:07;7.60;;;3.50;;
51122;SDS011;37162;41.724;13.346;2023-06-10T01:15:37;3.65;;;3.20;;
51122;SDS011;37162;41.724;13.346;2023-06-10T01:18:04;6.97;;;3.78;;
51122;SDS011;37162;41.724;13.346;2023-06-10T01:20:33;6.95;;;3.63;;
51122;SDS011;37162;41.724;13.346;2023-06-10T01:23:02;5.25;;;3.05;;
51122;SDS011;37162;41.724;13.346;2023-06-10T01:25:28;5.18;;;3.13;;
51122;SDS011;37162;41.724;13.346;2023-06-10T01:28:00;5.53;;;3.78;;
51122;SDS011;37162;41.724;13.346;2023-06-10T01:30:34;7.70;;;2.97;;
51122;SDS011;37162;41.724;13.346;2023-06-10T01:33:28;3.70;;;3.10;;
51122;SDS011;37162;41.724;13.346;2023-06-10T01:35:59;4.00;;;3.45;;
51122;SDS011;37162;41.724;13.346;2023-06-10T01:38:27;6.00;;;3.55;;
51122;SDS011;37162;41.724;13.346;2023-06-10T01:40:55;3.78;;;3.22;;
51122;SDS011;37162;41.724;13.346;2023-06-10T01:43:22;6.00;;;3.15;;
51122;SDS011;37162;41.724;13.346;2023-06-10T01:45:47;5.53;;;2.95;;
51122;SDS011;37162;41.724;13.346;2023-06-10T01:48:13;4.45;;;3.53;;
51122;SDS011;37162;41.724;13.346;2023-06-10T01:50:38;11.13;;;3.63;;
51122;SDS011;37162;41.724;13.346;2023-06-10T01:53:04;6.53;;;3.75;;
51122;SDS011;37162;41.724;13.346;2023-06-10T01:55:32;4.13;;;3.00;;
51122;SDS011;37162;41.724;13.346;2023-06-10T01:57:58;7.38;;;3.78;;
51122;SDS011;37162;41.724;13.346;2023-06-10T02:00:23;5.18;;;3.20;;
51122;SDS011;37162;41.724;13.346;2023-06-10T02:02:48;5.07;;;3.20;;
51122;SDS011;37162;41.724;13.346;2023-06-10T02:05:14;4.88;;;3.17;;
51122;SDS011;37162;41.724;13.346;2023-06-10T02:07:40;3.60;;;2.70;;
51122;SDS011;37162;41.724;13.346;2023-06-10T02:10:06;4.88;;;3.28;;
51122;SDS011;37162;41.724;13.346;2023-06-10T02:12:32;8.85;;;3.40;;
51122;SDS011;37162;41.724;13.346;2023-06-10T02:14:57;4.65;;;2.78;;
51122;SDS011;37162;41.724;13.346;2023-06-10T02:17:23;5.65;;;4.20;;
51122;SDS011;37162;41.724;13.346;2023-06-10T02:19:48;4.55;;;3.45;;
51122;SDS011;37162;41.724;13.346;2023-06-10T02:22:21;4.55;;;2.85;;
51122;SDS011;37162;41.724;13.346;2023-06-10T02:24:47;3.80;;;3.38;;
51122;SDS011;37162;41.724;13.346;2023-06-10T02:27:13;5.75;;;3.58;;
51122;SDS011;37162;41.724;13.346;2023-06-10T02:29:38;5.32;;;2.88;;
51122;SDS011;37162;41.724;13.346;2023-06-10T02:32:03;4.28;;;3.22;;
51122;SDS011;37162;41.724;13.346;2023-06-10T02:34:29;3.70;;;3.03;;
51122;SDS011;37162;41.724;13.346;2023-06-10T02:36:55;6.13;;;3.40;;
51122;SDS011;37162;41.724;13.346;2023-06-10T02:39:21;4.35;;;3.50;;
51122;SDS011;37162;41.724;13.346;2023-06-10T02:41:46;7.15;;;3.65;;
51122;SDS011;37162;41.724;13.346;2023-06-10T02:44:12;7.45;;;3.38;;
51122;SDS011;37162;41.724;13.346;2023-06-10T02:46:37;6.15;;;3.80;;
51122;SDS011;37162;41.724;13.346;2023-06-10T02:49:03;4.72;;;3.15;;
51122;SDS011;37162;41.724;13.346;2023-06-10T02:51:28;5.20;;;3.83;;
51122;SDS011;37162;41.724;13.346;2023-06-10T02:53:53;3.40;;;3.03;;
51122;SDS011;37162;41.724;13.346;2023-06-10T02:56:19;6.15;;;3.50;;
51122;SDS011;37162;41.724;13.346;2023-06-10T02:58:45;3.45;;;3.05;;
51122;SDS011;37162;41.724;13.346;2023-06-10T03:01:11;4.85;;;3.25;;
51122;SDS011;37162;41.724;13.346;2023-06-10T03:03:37;3.55;;;2.88;;
51122;SDS011;37162;41.724;13.346;2023-06-10T03:06:06;5.82;;;3.40;;
51122;SDS011;37162;41.724;13.346;2023-06-10T03:08:31;7.05;;;3.15;;
51122;SDS011;37162;41.724;13.346;2023-06-10T03:10:57;3.45;;;2.90;;
51122;SDS011;37162;41.724;13.346;2023-06-10T03:13:23;3.20;;;2.70;;
51122;SDS011;37162;41.724;13.346;2023-06-10T03:15:48;5.00;;;3.05;;
51122;SDS011;37162;41.724;13.346;2023-06-10T03:18:14;3.75;;;2.95;;
51122;SDS011;37162;41.724;13.346;2023-06-10T03:20:40;4.00;;;3.33;;
51122;SDS011;37162;41.724;13.346;2023-06-10T03:23:05;8.15;;;3.00;;
51122;SDS011;37162;41.724;13.346;2023-06-10T03:25:34;3.08;;;2.65;;
51122;SDS011;37162;41.724;13.346;2023-06-10T03:28:00;4.55;;;2.90;;
51122;SDS011;37162;41.724;13.346;2023-06-10T03:30:26;8.32;;;2.85;;
51122;SDS011;37162;41.724;13.346;2023-06-10T03:32:54;5.25;;;2.90;;
51122;SDS011;37162;41.724;13.346;2023-06-10T03:35:20;5.40;;;3.10;;
51122;SDS011;37162;41.724;13.346;2023-06-10T03:37:45;4.50;;;2.90;;
51122;SDS011;37162;41.724;13.346;2023-06-10T03:40:11;6.65;;;3.00;;
51122;SDS011;37162;41.724;13.346;2023-06-10T03:42:37;3.25;;;2.80;;
51122;SDS011;37162;41.724;13.346;2023-06-10T03:45:02;3.67;;;2.83;;
51122;SDS011;37162;41.724;13.346;2023-06-10T03:47:35;4.75;;;3.22;;
51122;SDS011;37162;41.724;13.346;2023-06-10T03:50:02;6.03;;;3.53;;
51122;SDS011;37162;41.724;13.346;2023-06-10T03:52:31;4.53;;;3.05;;
51122;SDS011;37162;41.724;13.346;2023-06-10T03:54:57;3.92;;;2.70;;
51122;SDS011;37162;41.724;13.346;2023-06-10T03:57:22;5.70;;;3.38;;
51122;SDS011;37162;41.724;13.346;2023-06-10T03:59:48;4.43;;;3.70;;
51122;SDS011;37162;41.724;13.346;2023-06-10T04:02:13;4.50;;;2.80;;
51122;SDS011;37162;41.724;13.346;2023-06-10T04:04:39;5.65;;;3.55;;
51122;SDS011;37162;41.724;13.346;2023-06-10T04:07:04;4.80;;;3.00;;
51122;SDS011;37162;41.724;13.346;2023-06-10T04:09:30;3.00;;;2.70;;
51122;SDS011;37162;41.724;13.346;2023-06-10T04:11:56;4.72;;;2.90;;
51122;SDS011;37162;41.724;13.346;2023-06-10T04:14:21;3.40;;;3.00;;
51122;SDS011;37162;41.724;13.346;2023-06-10T04:16:46;4.32;;;3.08;;
51122;SDS011;37162;41.724;13.346;2023-06-10T04:19:12;3.10;;;2.80;;
51122;SDS011;37162;41.724;13.346;2023-06-10T04:21:38;6.75;;;2.60;;
51122;SDS011;37162;41.724;13.346;2023-06-10T04:24:03;4.93;;;2.92;;
51122;SDS011;37162;41.724;13.346;2023-06-10T04:26:29;3.05;;;2.70;;
51122;SDS011;37162;41.724;13.346;2023-06-10T04:28:54;5.68;;;3.38;;
51122;SDS011;37162;41.724;13.346;2023-06-10T04:31:20;3.53;;;2.85;;
51122;SDS011;37162;41.724;13.346;2023-06-10T04:33:45;3.25;;;2.95;;
51122;SDS011;37162;41.724;13.346;2023-06-10T04:36:11;4.43;;;2.95;;
51122;SDS011;37162;41.724;13.346;2023-06-10T04:38:36;4.50;;;2.80;;
51122;SDS011;37162;41.724;13.346;2023-06-10T04:41:02;3.28;;;2.83;;
51122;SDS011;37162;41.724;13.346;2023-06-10T04:43:28;3.00;;;2.70;;
51122;SDS011;37162;41.724;13.346;2023-06-10T04:45:55;3.55;;;3.10;;
51122;SDS011;37162;41.724;13.346;2023-06-10T04:48:21;3.63;;;2.60;;
51122;SDS011;37162;41.724;13.346;2023-06-10T04:50:48;5.65;;;3.03;;
51122;SDS011;37162;41.724;13.346;2023-06-10T04:53:15;8.80;;;3.28;;
51122;SDS011;37162;41.724;13.346;2023-06-10T04:55:40;3.90;;;2.70;;
51122;SDS011;37162;41.724;13.346;2023-06-10T04:58:06;4.63;;;2.85;;
51122;SDS011;37162;41.724;13.346;2023-06-10T05:00:31;5.25;;;2.90;;
51122;SDS011;37162;41.724;13.346;2023-06-10T05:02:57;3.50;;;2.50;;
51122;SDS011;37162;41.724;13.346;2023-06-10T05:05:22;3.97;;;2.40;;
51122;SDS011;37162;41.724;13.346;2023-06-10T05:07:48;3.50;;;2.80;;
51122;SDS011;37162;41.724;13.346;2023-06-10T05:10:13;5.03;;;3.15;;
51122;SDS011;37162;41.724;13.346;2023-06-10T05:12:39;3.88;;;2.72;;
51122;SDS011;37162;41.724;13.346;2023-06-10T05:15:06;5.28;;;2.63;;
51122;SDS011;37162;41.724;13.346;2023-06-10T05:17:32;3.65;;;2.80;;
51122;SDS011;37162;41.724;13.346;2023-06-10T05:19:58;4.03;;;2.55;;
51122;SDS011;37162;41.724;13.346;2023-06-10T05:22:23;3.35;;;2.38;;
51122;SDS011;37162;41.724;13.346;2023-06-10T05:24:49;5.60;;;3.10;;
51122;SDS011;37162;41.724;13.346;2023-06-10T05:27:16;2.70;;;2.50;;
51122;SDS011;37162;41.724;13.346;2023-06-10T05:29:41;4.47;;;2.40;;
51122;SDS011;37162;41.724;13.346;2023-06-10T05:32:07;4.50;;;2.85;;
51122;SDS011;37162;41.724;13.346;2023-06-10T05:34:33;4.05;;;2.40;;
51122;SDS011;37162;41.724;13.346;2023-06-10T05:36:58;5.57;;;2.35;;
51122;SDS011;37162;41.724;13.346;2023-06-10T05:39:24;7.32;;;2.22;;
51122;SDS011;37162;41.724;13.346;2023-06-10T05:41:49;3.65;;;2.35;;
51122;SDS011;37162;41.724;13.346;2023-06-10T05:44:15;3.08;;;2.25;;
51122;SDS011;37162;41.724;13.346;2023-06-10T05:46:40;3.50;;;2.67;;
51122;SDS011;37162;41.724;13.346;2023-06-10T05:49:06;2.72;;;1.88;;
51122;SDS011;37162;41.724;13.346;2023-06-10T05:51:31;3.92;;;2.67;;
51122;SDS011;37162;41.724;13.346;2023-06-10T05:53:57;3.90;;;2.25;;
51122;SDS011;37162;41.724;13.346;2023-06-10T05:56:24;3.05;;;2.20;;
51122;SDS011;37162;41.724;13.346;2023-06-10T05:58:50;4.25;;;3.00;;
51122;SDS011;37162;41.724;13.346;2023-06-10T06:01:16;13.02;;;2.63;;
51122;SDS011;37162;41.724;13.346;2023-06-10T06:03:41;4.82;;;2.30;;
51122;SDS011;37162;41.724;13.346;2023-06-10T06:06:07;2.60;;;2.20;;
51122;SDS011;37162;41.724;13.346;2023-06-10T06:08:32;4.70;;;2.08;;
51122;SDS011;37162;41.724;13.346;2023-06-10T06:10:57;3.17;;;2.63;;
51122;SDS011;37162;41.724;13.346;2023-06-10T06:13:23;2.60;;;2.15;;
51122;SDS011;37162;41.724;13.346;2023-06-10T06:15:49;2.38;;;2.00;;
51122;SDS011;37162;41.724;13.346;2023-06-10T06:18:15;4.07;;;2.28;;
51122;SDS011;37162;41.724;13.346;2023-06-10T06:20:40;15.60;;;2.55;;
51122;SDS011;37162;41.724;13.346;2023-06-10T06:23:06;2.97;;;2.10;;
51122;SDS011;37162;41.724;13.346;2023-06-10T06:25:33;8.57;;;3.58;;
51122;SDS011;37162;41.724;13.346;2023-06-10T06:28:00;3.92;;;2.78;;
51122;SDS011;37162;41.724;13.346;2023-06-10T06:30:26;3.33;;;2.50;;
51122;SDS011;37162;41.724;13.346;2023-06-10T06:32:51;8.57;;;2.50;;
51122;SDS011;37162;41.724;13.346;2023-06-10T06:35:17;3.75;;;2.30;;
51122;SDS011;37162;41.724;13.346;2023-06-10T06:37:42;4.00;;;2.30;;
51122;SDS011;37162;41.724;13.346;2023-06-10T06:40:08;5.95;;;2.13;;
51122;SDS011;37162;41.724;13.346;2023-06-10T06:42:33;5.82;;;2.97;;
51122;SDS011;37162;41.724;13.346;2023-06-10T06:44:59;4.53;;;2.38;;
51122;SDS011;37162;41.724;13.346;2023-06-10T06:47:24;3.92;;;2.60;;
51122;SDS011;37162;41.724;13.346;2023-06-10T06:49:51;11.45;;;3.42;;
51122;SDS011;37162;41.724;13.346;2023-06-10T06:52:17;13.15;;;3.83;;
51122;SDS011;37162;41.724;13.346;2023-06-10T06:54:42;10.48;;;3.22;;
51122;SDS011;37162;41.724;13.346;2023-06-10T06:57:08;3.72;;;2.50;;
51122;SDS011;37162;41.724;13.346;2023-06-10T06:59:33;5.55;;;2.70;;
51122;SDS011;37162;41.724;13.346;2023-06-10T07:01:59;7.43;;;2.83;;
51122;SDS011;37162;41.724;13.346;2023-06-10T07:04:24;7.95;;;2.85;;
51122;SDS011;37162;41.724;13.346;2023-06-10T07:06:50;10.50;;;2.80;;
51122;SDS011;37162;41.724;13.346;2023-06-10T07:09:15;7.95;;;3.10;;
51122;SDS011;37162;41.724;13.346;2023-06-10T07:11:41;4.82;;;2.83;;
51122;SDS011;37162;41.724;13.346;2023-06-10T07:14:07;5.70;;;2.92;;
51122;SDS011;37162;41.724;13.346;2023-06-10T07:16:32;5.72;;;2.70;;
51122;SDS011;37162;41.724;13.346;2023-06-10T07:18:58;5.18;;;2.85;;
51122;SDS011;37162;41.724;13.346;2023-06-10T07:21:26;5.18;;;3.15;;
51122;SDS011;37162;41.724;13.346;2023-06-10T07:23:53;6.82;;;3.58;;
51122;SDS011;37162;41.724;13.346;2023-06-10T07:26:19;3.25;;;2.38;;
51122;SDS011;37162;41.724;13.346;2023-06-10T07:28:46;5.38;;;2.78;;
51122;SDS011;37162;41.724;13.346;2023-06-10T07:31:12;3.58;;;2.90;;
51122;SDS011;37162;41.724;13.346;2023-06-10T07:33:37;11.40;;;3.28;;
51122;SDS011;37162;41.724;13.346;2023-06-10T07:36:06;4.57;;;2.83;;
51122;SDS011;37162;41.724;13.346;2023-06-10T07:38:32;6.28;;;2.78;;
51122;SDS011;37162;41.724;13.346;2023-06-10T07:40:57;8.38;;;3.83;;
51122;SDS011;37162;41.724;13.346;2023-06-10T07:43:23;6.85;;;3.47;;
51122;SDS011;37162;41.724;13.346;2023-06-10T07:45:49;15.48;;;3.45;;
51122;SDS011;37162;41.724;13.346;2023-06-10T07:48:15;5.82;;;3.08;;
51122;SDS011;37162;41.724;13.346;2023-06-10T07:50:40;7.82;;;3.10;;
51122;SDS011;37162;41.724;13.346;2023-06-10T07:53:06;4.90;;;3.00;;
51122;SDS011;37162;41.724;13.346;2023-06-10T07:55:31;6.85;;;3.53;;
51122;SDS011;37162;41.724;13.346;2023-06-10T07:57:57;4.72;;;3.28;;
51122;SDS011;37162;41.724;13.346;2023-06-10T08:00:22;4.45;;;3.03;;
51122;SDS011;37162;41.724;13.346;2023-06-10T08:02:47;3.85;;;3.10;;
51122;SDS011;37162;41.724;13.346;2023-06-10T08:05:13;6.20;;;3.90;;
51122;SDS011;37162;41.724;13.346;2023-06-10T08:07:39;7.85;;;3.50;;
51122;SDS011;37162;41.724;13.346;2023-06-10T08:10:05;7.72;;;3.63;;
51122;SDS011;37162;41.724;13.346;2023-06-10T08:12:32;6.03;;;3.50;;
51122;SDS011;37162;41.724;13.346;2023-06-10T08:14:58;5.22;;;3.95;;
51122;SDS011;37162;41.724;13.346;2023-06-10T08:17:23;5.72;;;3.95;;
51122;SDS011;37162;41.724;13.346;2023-06-10T08:19:49;5.35;;;3.13;;
51122;SDS011;37162;41.724;13.346;2023-06-10T08:22:14;5.35;;;3.25;;
51122;SDS011;37162;41.724;13.346;2023-06-10T08:24:40;5.07;;;3.38;;
51122;SDS011;37162;41.724;13.346;2023-06-10T08:27:05;4.43;;;3.17;;
51122;SDS011;37162;41.724;13.346;2023-06-10T08:29:31;8.32;;;3.47;;
51122;SDS011;37162;41.724;13.346;2023-06-10T08:31:57;8.93;;;3.47;;
51122;SDS011;37162;41.724;13.346;2023-06-10T08:34:23;5.03;;;3.58;;
51122;SDS011;37162;41.724;13.346;2023-06-10T08:36:48;4.10;;;2.88;;
51122;SDS011;37162;41.724;13.346;2023-06-10T08:39:18;7.65;;;3.45;;
51122;SDS011;37162;41.724;13.346;2023-06-10T08:41:45;7.50;;;3.55;;
51122;SDS011;37162;41.724;13.346;2023-06-10T08:44:29;5.55;;;3.25;;
51122;SDS011;37162;41.724;13.346;2023-06-10T08:47:01;4.45;;;3.28;;
51122;SDS011;37162;41.724;13.346;2023-06-10T08:49:38;5.60;;;3.55;;
51122;SDS011;37162;41.724;13.346;2023-06-10T08:52:06;4.55;;;3.30;;
51122;SDS011;37162;41.724;13.346;2023-06-10T08:54:33;5.10;;;3.20;;
51122;SDS011;37162;41.724;13.346;2023-06-10T08:57:03;5.85;;;3.20;;
51122;SDS011;37162;41.724;13.346;2023-06-10T08:59:33;12.00;;;3.67;;
51122;SDS011;37162;41.724;13.346;2023-06-10T09:02:00;8.60;;;3.72;;
51122;SDS011;37162;41.724;13.346;2023-06-10T09:04:27;7.00;;;3.33;;
51122;SDS011;37162;41.724;13.346;2023-06-10T09:06:53;5.72;;;3.67;;
51122;SDS011;37162;41.724;13.346;2023-06-10T09:09:19;4.20;;;3.53;;
51122;SDS011;37162;41.724;13.346;2023-06-10T09:11:47;6.65;;;3.70;;
51122;SDS011;37162;41.724;13.346;2023-06-10T09:14:13;5.85;;;3.40;;
51122;SDS011;37162;41.724;13.346;2023-06-10T09:16:38;6.15;;;3.67;;
51122;SDS011;37162;41.724;13.346;2023-06-10T09:19:05;4.82;;;3.20;;
51122;SDS011;37162;41.724;13.346;2023-06-10T09:21:34;5.22;;;3.65;;
51122;SDS011;37162;41.724;13.346;2023-06-10T09:24:03;5.05;;;3.63;;
51122;SDS011;37162;41.724;13.346;2023-06-10T09:26:30;4.30;;;3.10;;
51122;SDS011;37162;41.724;13.346;2023-06-10T09:29:05;4.65;;;3.03;;
51122;SDS011;37162;41.724;13.346;2023-06-10T09:31:36;4.78;;;3.30;;
51122;SDS011;37162;41.724;13.346;2023-06-10T09:34:06;4.15;;;3.50;;
51122;SDS011;37162;41.724;13.346;2023-06-10T09:36:33;3.35;;;2.83;;
51122;SDS011;37162;41.724;13.346;2023-06-10T09:39:00;4.57;;;2.90;;
51122;SDS011;37162;41.724;13.346;2023-06-10T09:41:33;4.32;;;3.17;;
51122;SDS011;37162;41.724;13.346;2023-06-10T09:44:10;3.90;;;2.95;;
51122;SDS011;37162;41.724;13.346;2023-06-10T09:46:41;4.32;;;3.28;;
51122;SDS011;37162;41.724;13.346;2023-06-10T09:49:06;4.13;;;3.17;;
51122;SDS011;37162;41.724;13.346;2023-06-10T09:51:32;3.17;;;2.78;;
51122;SDS011;37162;41.724;13.346;2023-06-10T09:53:58;4.57;;;3.30;;
51122;SDS011;37162;41.724;13.346;2023-06-10T09:56:34;3.35;;;2.70;;
51122;SDS011;37162;41.724;13.346;2023-06-10T09:59:00;4.60;;;3.33;;
51122;SDS011;37162;41.724;13.346;2023-06-10T10:01:26;7.93;;;2.97;;
51122;SDS011;37162;41.724;13.346;2023-06-10T10:03:52;4.25;;;3.08;;
51122;SDS011;37162;41.724;13.346;2023-06-10T10:06:18;3.80;;;2.83;;
51122;SDS011;37162;41.724;13.346;2023-06-10T10:08:50;3.75;;;2.70;;
51122;SDS011;37162;41.724;13.346;2023-06-10T10:11:17;3.42;;;2.78;;
51122;SDS011;37162;41.724;13.346;2023-06-10T10:13:45;3.08;;;2.47;;
51122;SDS011;37162;41.724;13.346;2023-06-10T10:16:11;3.65;;;2.67;;
51122;SDS011;37162;41.724;13.346;2023-06-10T10:18:43;6.38;;;2.58;;
51122;SDS011;37162;41.724;13.346;2023-06-10T10:21:13;3.80;;;2.55;;
51122;SDS011;37162;41.724;13.346;2023-06-10T10:23:45;3.45;;;2.53;;
51122;SDS011;37162;41.724;13.346;2023-06-10T10:26:18;4.00;;;2.70;;
51122;SDS011;37162;41.724;13.346;2023-06-10T10:28:48;3.13;;;2.20;;
51122;SDS011;37162;41.724;13.346;2023-06-10T10:31:19;2.67;;;2.35;;
51122;SDS011;37162;41.724;13.346;2023-06-10T10:33:59;6.28;;;2.20;;
51122;SDS011;37162;41.724;13.346;2023-06-10T10:36:25;2.90;;;2.20;;
51122;SDS011;37162;41.724;13.346;2023-06-10T10:38:52;3.13;;;2.03;;
51122;SDS011;37162;41.724;13.346;2023-06-10T10:41:18;7.05;;;2.33;;
51122;SDS011;37162;41.724;13.346;2023-06-10T10:43:44;3.38;;;2.22;;
51122;SDS011;37162;41.724;13.346;2023-06-10T10:46:12;3.17;;;2.03;;
51122;SDS011;37162;41.724;13.346;2023-06-10T10:48:39;6.10;;;2.03;;
51122;SDS011;37162;41.724;13.346;2023-06-10T10:51:06;4.82;;;2.22;;
51122;SDS011;37162;41.724;13.346;2023-06-10T10:53:32;2.60;;;2.20;;
51122;SDS011;37162;41.724;13.346;2023-06-10T10:56:01;2.40;;;1.80;;
51122;SDS011;37162;41.724;13.346;2023-06-10T10:58:30;2.50;;;1.90;;
51122;SDS011;37162;41.724;13.346;2023-06-10T11:00:57;3.08;;;1.80;;
51122;SDS011;37162;41.724;13.346;2023-06-10T11:03:22;3.28;;;2.00;;
51122;SDS011;37162;41.724;13.346;2023-06-10T11:05:53;4.65;;;2.00;;
51122;SDS011;37162;41.724;13.346;2023-06-10T11:08:45;6.45;;;2.30;;
51122;SDS011;37162;41.724;13.346;2023-06-10T11:11:23;18.60;;;3.45;;
51122;SDS011;37162;41.724;13.346;2023-06-10T11:16:29;14.32;;;2.10;;
51122;SDS011;37162;41.724;13.346;2023-06-10T11:18:55;10.38;;;2.40;;
51122;SDS011;37162;41.724;13.346;2023-06-10T11:21:24;5.20;;;2.33;;
51122;SDS011;37162;41.724;13.346;2023-06-10T11:23:50;3.58;;;1.80;;
51122;SDS011;37162;41.724;13.346;2023-06-10T11:31:23;7.20;;;2.10;;
51122;SDS011;37162;41.724;13.346;2023-06-10T11:33:54;5.75;;;2.20;;
51122;SDS011;37162;41.724;13.346;2023-06-10T11:36:22;3.05;;;2.08;;
51122;SDS011;37162;41.724;13.346;2023-06-10T11:38:48;2.38;;;1.77;;
51122;SDS011;37162;41.724;13.346;2023-06-10T11:41:14;2.97;;;2.53;;
51122;SDS011;37162;41.724;13.346;2023-06-10T11:43:43;2.72;;;1.90;;
51122;SDS011;37162;41.724;13.346;2023-06-10T11:46:10;5.22;;;2.50;;
51122;SDS011;37162;41.724;13.346;2023-06-10T11:48:35;3.70;;;2.25;;
51122;SDS011;37162;41.724;13.346;2023-06-10T11:51:05;5.22;;;2.05;;
51122;SDS011;37162;41.724;13.346;2023-06-10T11:53:33;3.10;;;1.90;;
51122;SDS011;37162;41.724;13.346;2023-06-10T11:55:59;3.72;;;2.10;;
51122;SDS011;37162;41.724;13.346;2023-06-10T11:58:25;4.75;;;2.25;;
51122;SDS011;37162;41.724;13.346;2023-06-10T12:03:18;4.38;;;2.05;;
51122;SDS011;37162;41.724;13.346;2023-06-10T12:06:00;3.30;;;2.22;;
51122;SDS011;37162;41.724;13.346;2023-06-10T12:08:29;5.68;;;1.95;;
51122;SDS011;37162;41.724;13.346;2023-06-10T12:10:55;4.00;;;2.00;;
51122;SDS011;37162;41.724;13.346;2023-06-10T12:13:21;3.20;;;2.20;;
51122;SDS011;37162;41.724;13.346;2023-06-10T12:15:48;3.25;;;1.92;;
51122;SDS011;37162;41.724;13.346;2023-06-10T12:23:13;3.00;;;2.28;;
51122;SDS011;37162;41.724;13.346;2023-06-10T12:25:47;3.97;;;1.77;;
51122;SDS011;37162;41.724;13.346;2023-06-10T12:28:22;3.00;;;1.98;;
51122;SDS011;37162;41.724;13.346;2023-06-10T12:30:50;3.85;;;1.95;;
51122;SDS011;37162;41.724;13.346;2023-06-10T12:33:19;3.47;;;2.25;;
51122;SDS011;37162;41.724;13.346;2023-06-10T12:35:49;3.88;;;1.73;;
51122;SDS011;37162;41.724;13.346;2023-06-10T12:38:23;2.38;;;1.80;;
51122;SDS011;37162;41.724;13.346;2023-06-10T12:40:49;2.67;;;1.90;;
51122;SDS011;37162;41.724;13.346;2023-06-10T12:43:22;3.17;;;1.92;;
51122;SDS011;37162;41.724;13.346;2023-06-10T12:45:48;4.05;;;1.83;;
51122;SDS011;37162;41.724;13.346;2023-06-10T12:48:21;2.78;;;2.10;;
51122;SDS011;37162;41.724;13.346;2023-06-10T12:50:52;4.43;;;2.05;;
51122;SDS011;37162;41.724;13.346;2023-06-10T12:53:19;3.42;;;2.28;;
51122;SDS011;37162;41.724;13.346;2023-06-10T12:55:46;13.77;;;2.15;;
51122;SDS011;37162;41.724;13.346;2023-06-10T12:58:12;9.95;;;2.03;;
51122;SDS011;37162;41.724;13.346;2023-06-10T13:00:38;12.35;;;2.40;;
51122;SDS011;37162;41.724;13.346;2023-06-10T13:03:04;6.63;;;1.90;;
51122;SDS011;37162;41.724;13.346;2023-06-10T13:05:33;8.23;;;2.15;;
51122;SDS011;37162;41.724;13.346;2023-06-10T13:08:02;4.13;;;2.33;;
51122;SDS011;37162;41.724;13.346;2023-06-10T13:10:27;7.60;;;2.70;;
51122;SDS011;37162;41.724;13.346;2023-06-10T13:12:53;4.50;;;2.15;;
51122;SDS011;37162;41.724;13.346;2023-06-10T13:15:21;3.22;;;1.98;;
51122;SDS011;37162;41.724;13.346;2023-06-10T13:17:47;4.93;;;2.22;;
51122;SDS011;37162;41.724;13.346;2023-06-10T13:20:15;3.55;;;2.15;;
51122;SDS011;37162;41.724;13.346;2023-06-10T13:22:42;4.43;;;2.45;;
51122;SDS011;37162;41.724;13.346;2023-06-10T13:25:07;2.25;;;1.50;;
51122;SDS011;37162;41.724;13.346;2023-06-10T13:27:34;4.32;;;2.05;;
51122;SDS011;37162;41.724;13.346;2023-06-10T13:30:00;5.43;;;1.88;;
51122;SDS011;37162;41.724;13.346;2023-06-10T13:32:26;1.98;;;1.73;;
51122;SDS011;37162;41.724;13.346;2023-06-10T13:34:51;12.20;;;2.40;;
51122;SDS011;37162;41.724;13.346;2023-06-10T13:37:18;4.07;;;2.00;;
51122;SDS011;37162;41.724;13.346;2023-06-10T13:39:44;7.63;;;1.95;;
51122;SDS011;37162;41.724;13.346;2023-06-10T13:42:13;3.80;;;1.73;;
51122;SDS011;37162;41.724;13.346;2023-06-10T13:44:39;2.55;;;2.10;;
51122;SDS011;37162;41.724;13.346;2023-06-10T13:47:04;3.00;;;1.80;;
51122;SDS011;37162;41.724;13.346;2023-06-10T13:49:30;3.33;;;1.92;;
51122;SDS011;37162;41.724;13.346;2023-06-10T13:51:56;2.67;;;1.77;;
51122;SDS011;37162;41.724;13.346;2023-06-10T13:54:22;3.30;;;2.10;;
51122;SDS011;37162;41.724;13.346;2023-06-10T13:56:47;2.80;;;1.88;;
51122;SDS011;37162;41.724;13.346;2023-06-10T13:59:13;3.03;;;1.85;;
51122;SDS011;37162;41.724;13.346;2023-06-10T14:01:38;3.03;;;1.80;;
51122;SDS011;37162;41.724;13.346;2023-06-10T14:04:05;4.57;;;1.65;;
51122;SDS011;37162;41.724;13.346;2023-06-10T14:06:31;3.50;;;1.67;;
51122;SDS011;37162;41.724;13.346;2023-06-10T14:08:58;2.22;;;1.65;;
51122;SDS011;37162;41.724;13.346;2023-06-10T14:11:23;3.70;;;1.88;;
51122;SDS011;37162;41.724;13.346;2023-06-10T14:13:49;2.65;;;1.88;;
51122;SDS011;37162;41.724;13.346;2023-06-10T14:16:14;2.10;;;1.80;;
51122;SDS011;37162;41.724;13.346;2023-06-10T14:18:40;4.20;;;1.90;;
51122;SDS011;37162;41.724;13.346;2023-06-10T14:21:05;5.75;;;2.00;;
51122;SDS011;37162;41.724;13.346;2023-06-10T14:23:31;2.83;;;2.00;;
51122;SDS011;37162;41.724;13.346;2023-06-10T14:25:56;3.20;;;1.48;;
51122;SDS011;37162;41.724;13.346;2023-06-10T14:28:21;2.85;;;1.60;;
51122;SDS011;37162;41.724;13.346;2023-06-10T14:30:49;2.22;;;1.77;;
51122;SDS011;37162;41.724;13.346;2023-06-10T14:33:14;4.93;;;2.25;;
51122;SDS011;37162;41.724;13.346;2023-06-10T14:35:40;3.00;;;1.75;;
51122;SDS011;37162;41.724;13.346;2023-06-10T14:38:05;3.20;;;1.80;;
51122;SDS011;37162;41.724;13.346;2023-06-10T14:40:31;2.97;;;1.80;;
51122;SDS011;37162;41.724;13.346;2023-06-10T14:42:57;2.15;;;1.60;;
51122;SDS011;37162;41.724;13.346;2023-06-10T14:45:22;3.00;;;2.00;;
51122;SDS011;37162;41.724;13.346;2023-06-10T14:47:47;3.20;;;1.95;;